Terminal Aerodrome Forecast
Issued by NWS

Home | Current Version | Previous Version | Text Only | Print | Product List | Glossary On
Versions: 1 2 3 4 5 6 7 8 9 10 11 12 13 14 15 16 17 18 19 20 21 22 23 24 25 26 27 28 29 30 31 32 33 34 35 36 37 38 39 40 41
000
FTUS45 KSLC 260058 AAA
TAFOGD
TAF AMD
KOGD 260058Z 2601/2624 18010KT 2SM RA BR SCT020 BKN035
     FM260300 34005KT 6SM -RA SCT025 OVC035
     FM260700 34012G18KT 6SM -SHRA SCT025 OVC035
     FM261200 34008KT 6SM -SHRA SCT015 SCT030 OVC050
     FM261800 33007KT P6SM VCSH SCT030 BKN050=

USA.gov is the U.S. government's official web portal to all federal, state and local government web resources and services.